createdAt,value
2023-01-27T10:19:04.570Z,7.86
2023-01-27T10:24:15.637Z,9.13
2023-01-27T10:29:25.071Z,9.45
2023-01-27T10:34:38.344Z,9.85
2023-01-27T10:39:49.029Z,10.08
2023-01-27T10:45:11.661Z,10.16
2023-01-27T10:50:19.714Z,9.83
2023-01-27T10:55:27.380Z,9.61
2023-01-27T11:06:05.856Z,9.61
2023-01-27T11:11:24.974Z,9.74
2023-01-27T11:16:30.571Z,10.04
2023-01-27T11:21:38.481Z,10.12
2023-01-27T11:26:46.655Z,10.18
2023-01-27T11:31:56.622Z,10.20
2023-01-27T11:37:04.783Z,10.23
2023-01-27T11:42:11.549Z,10.29
2023-01-27T11:47:23.401Z,10.54
2023-01-27T11:52:31.424Z,10.62
2023-01-27T11:57:36.880Z,10.39
2023-01-27T12:02:45.045Z,10.22
2023-01-27T12:07:55.368Z,10.10
2023-01-27T12:13:02.974Z,10.11
2023-01-27T12:18:15.133Z,10.16
2023-01-27T12:23:27.986Z,10.27
2023-01-27T12:28:35.121Z,10.20
2023-01-27T12:33:43.164Z,10.16
2023-01-27T12:38:54.057Z,10.09
2023-01-27T12:44:01.256Z,10.04
2023-01-27T12:49:15.012Z,10.00
2023-01-27T12:54:24.958Z,9.88
2023-01-27T12:59:30.086Z,9.85
2023-01-27T13:04:37.337Z,10.00
2023-01-27T13:09:51.578Z,9.92
2023-01-27T13:14:58.600Z,9.78
2023-01-27T13:20:06.063Z,9.80
2023-01-27T13:25:21.430Z,9.70
2023-01-27T13:30:30.717Z,9.63
2023-01-27T13:35:38.704Z,9.51
2023-01-27T13:40:47.989Z,9.36
2023-01-27T13:45:57.433Z,9.14
2023-01-27T13:51:09.877Z,9.02
2023-01-27T13:56:37.575Z,9.02
2023-01-27T14:01:48.508Z,9.09
2023-01-27T14:07:03.025Z,9.11
2023-01-27T14:12:19.690Z,9.09
2023-01-27T14:17:34.104Z,9.06
2023-01-27T14:22:44.940Z,9.12
2023-01-27T14:33:06.458Z,9.30
2023-01-27T14:38:18.920Z,9.32
2023-01-27T14:43:34.679Z,9.34
2023-01-27T14:48:48.195Z,9.34
2023-01-27T14:54:04.657Z,9.19
2023-01-27T14:59:18.213Z,9.14
2023-01-27T15:04:49.707Z,9.15
2023-01-27T15:10:13.634Z,8.92
2023-01-27T15:16:05.576Z,8.85
2023-01-27T15:21:48.416Z,8.74
2023-01-27T15:26:53.856Z,8.54
2023-01-27T15:32:29.774Z,8.43
2023-01-27T15:37:35.098Z,8.38
2023-01-27T15:42:53.326Z,8.39
2023-01-27T15:48:04.689Z,8.39
2023-01-27T15:53:16.232Z,8.35
2023-01-27T16:57:38.178Z,6.27
2023-01-27T17:02:44.540Z,7.80
2023-01-27T17:08:06.202Z,7.53
2023-01-27T17:13:28.832Z,7.57
2023-01-27T17:18:46.857Z,7.59
2023-01-27T17:24:00.329Z,7.69
2023-01-27T17:29:08.167Z,7.78
2023-01-27T17:34:18.174Z,7.79
2023-01-27T17:39:28.373Z,7.82
2023-01-27T17:44:36.673Z,7.81
2023-01-27T17:49:41.919Z,7.78
2023-01-27T17:54:47.178Z,7.73
2023-01-27T18:00:00.467Z,7.70
2023-01-27T18:05:07.924Z,7.67
2023-01-27T18:12:35.279Z,7.73
2023-01-27T18:17:40.331Z,7.63
2023-01-27T18:22:46.715Z,7.50
2023-01-27T18:27:58.365Z,7.42
2023-01-27T18:33:06.776Z,7.39
2023-01-27T18:38:24.891Z,7.43
2023-01-27T18:43:32.766Z,7.45
2023-01-27T18:48:39.179Z,7.45
2023-01-27T18:53:45.699Z,7.45
2023-01-27T18:58:54.202Z,7.41
2023-01-27T19:03:59.812Z,7.37
2023-01-27T19:09:05.010Z,7.39
2023-01-27T19:14:12.808Z,7.43
2023-01-27T19:19:17.941Z,7.42
2023-01-27T19:24:23.137Z,7.43
2023-01-27T19:29:31.225Z,7.49
2023-01-27T19:34:36.323Z,7.52
2023-01-27T19:39:41.416Z,7.54
2023-01-27T19:44:49.233Z,7.61
2023-01-27T19:49:54.386Z,7.64
2023-01-27T19:54:59.592Z,7.67
2023-01-27T20:00:09.105Z,7.66
2023-01-27T20:05:14.450Z,7.64
2023-01-27T20:10:26.603Z,7.63
2023-01-27T20:15:37.276Z,7.60
2023-01-27T20:20:42.608Z,7.53
2023-01-27T20:25:47.791Z,7.52
2023-01-27T20:30:55.563Z,7.46
2023-01-27T20:36:00.697Z,7.31
2023-01-27T20:41:09.869Z,7.22
2023-01-27T20:46:20.951Z,7.20
2023-01-27T20:51:26.263Z,7.19
2023-01-27T20:56:31.357Z,7.14
2023-01-27T21:01:39.244Z,7.12
2023-01-27T21:06:44.474Z,7.13
2023-01-27T21:11:49.548Z,7.19
2023-01-27T21:16:57.284Z,7.25
2023-01-27T21:22:02.888Z,7.19
2023-01-27T21:27:08.092Z,7.19
2023-01-27T21:32:15.901Z,7.23
2023-01-27T21:37:21.003Z,7.21
2023-01-27T21:42:38.552Z,7.17
2023-01-27T21:47:46.188Z,7.18
2023-01-27T21:52:52.580Z,7.15
2023-01-27T21:57:58.486Z,7.10
2023-01-27T22:03:06.757Z,7.03
2023-01-27T22:08:12.086Z,6.96
2023-01-27T22:13:17.210Z,6.94
2023-01-27T22:18:24.891Z,6.93
2023-01-27T22:23:29.954Z,6.91
2023-01-27T22:28:35.236Z,6.93
2023-01-27T22:33:42.949Z,6.96
2023-01-27T22:38:48.024Z,6.90
2023-01-27T22:43:53.420Z,6.90
2023-01-27T22:49:01.222Z,6.87
2023-01-27T22:54:06.627Z,6.81
2023-01-27T22:59:14.573Z,6.78
2023-01-27T23:04:22.360Z,6.71
2023-01-27T23:09:27.448Z,6.63
2023-01-27T23:14:32.626Z,6.59
2023-01-27T23:19:40.379Z,6.57
2023-01-27T23:24:45.507Z,6.57
2023-01-27T23:29:50.637Z,6.56
2023-01-27T23:34:58.289Z,6.53
2023-01-27T23:40:03.546Z,6.43
2023-01-27T23:45:09.948Z,6.31
2023-01-27T23:50:17.959Z,6.11
2023-01-27T23:55:23.055Z,5.90
